Time;durP1;ratioP1;P1;durP2;ratioP2;P2;SDS_P1;SDS_P2;PMS_P1;PMS_P2;Temp;Humidity;BMP_temperature;BMP_pressure;BME280_temperature;BME280_humidity;BME280_pressure;Samples;Min_cycle;Max_cycle;Signal;HPM_P1;HPM_P2
2023/02/09 00:00:15;;;;;;;;;;;;;;;16.60;15.58;100511.47;5066375;28;20375;-83
2023/02/09 00:02:41;;;;;;;;;;;;;;;16.78;16.03;100510.34;5072467;28;20291;-83
2023/02/09 00:05:08;;;;;;;;;;;;;;;16.93;15.30;100517.38;5073805;28;19916;-83
2023/02/09 00:07:34;;;;;;;;;;;;;;;17.00;15.44;100501.03;5073871;28;19917;-83
2023/02/09 00:10:00;;;;;;;;;;;;;;;17.06;15.23;100499.75;5065873;28;19990;-83
2023/02/09 00:15:11;;;;;;;;;;;;;;;17.19;14.63;100482.91;5058056;28;19935;-83
2023/02/09 00:17:37;;;;;;;;;;;;;;;17.15;14.45;100493.00;5073711;28;19955;-83
2023/02/09 00:20:04;;;;;;;;;;;;;;;16.85;15.19;100494.03;5073593;28;19999;-83
2023/02/09 00:22:30;;;;;;;;;;;;;;;17.01;15.04;100494.34;5073946;28;19925;-83
2023/02/09 00:24:56;;;;;;;;;;;;;;;16.59;14.81;100504.31;5073336;28;20018;-83
2023/02/09 00:27:22;;;;;;;;;;;;;;;16.28;15.32;100496.09;5059320;28;19923;-83
2023/02/09 00:29:48;;;;;;;;;;;;;;;16.24;15.32;100499.81;5053330;28;20407;-83
2023/02/09 00:32:14;;;;;;;;;;;;;;;16.30;15.34;100495.75;5052944;28;19992;-83
2023/02/09 00:34:40;;;;;;;;;;;;;;;16.62;15.18;100495.31;5053355;28;20015;-83
2023/02/09 00:37:06;;;;;;;;;;;;;;;16.82;14.93;100489.16;5053345;28;20019;-83
2023/02/09 00:39:32;;;;;;;;;;;;;;;16.66;14.75;100490.78;5053070;28;20396;-84
2023/02/09 00:42:04;;;;;;;;;;;;;;;16.57;14.64;100487.16;5053616;28;20266;-83
2023/02/09 00:44:31;;;;;;;;;;;;;;;16.30;15.01;100474.41;5068466;28;20007;-84
2023/02/09 00:46:57;;;;;;;;;;;;;;;16.53;14.95;100484.25;5073631;28;20439;-84
2023/02/09 00:49:23;;;;;;;;;;;;;;;16.75;14.76;100476.91;5073370;28;19923;-84
2023/02/09 00:51:49;;;;;;;;;;;;;;;16.88;14.59;100470.34;5073442;28;19916;-84
2023/02/09 00:54:15;;;;;;;;;;;;;;;16.87;14.57;100472.34;5074652;28;20328;-84
2023/02/09 00:56:42;;;;;;;;;;;;;;;16.67;14.51;100461.06;5073054;28;19931;-84
2023/02/09 00:59:08;;;;;;;;;;;;;;;16.03;14.72;100460.00;5059110;28;19924;-84
2023/02/09 01:01:35;;;;;;;;;;;;;;;16.00;15.08;100455.91;5071280;28;20299;-84
2023/02/09 01:04:01;;;;;;;;;;;;;;;16.06;15.09;100457.38;5077157;28;19916;-84
2023/02/09 01:06:27;;;;;;;;;;;;;;;16.09;14.48;100444.84;5076836;28;20379;-84
2023/02/09 01:08:53;;;;;;;;;;;;;;;16.08;14.96;100440.47;5066172;28;19928;-84
2023/02/09 01:11:20;;;;;;;;;;;;;;;16.30;14.95;100427.28;5057046;28;20327;-84
2023/02/09 01:13:46;;;;;;;;;;;;;;;16.50;14.80;100428.56;5057134;28;19970;-84
2023/02/09 01:16:13;;;;;;;;;;;;;;;16.36;14.62;100425.97;5057046;28;19970;-83
2023/02/09 01:18:40;;;;;;;;;;;;;;;15.60;14.91;100423.84;5057816;28;20331;-83
2023/02/09 01:21:13;;;;;;;;;;;;;;;14.90;15.58;100413.56;5056840;28;19924;-83
2023/02/09 01:23:39;;;;;;;;;;;;;;;14.99;15.54;100414.44;5056439;28;19923;-86
2023/02/09 01:26:07;;;;;;;;;;;;;;;15.38;15.66;100412.84;5072102;28;19917;-83
2023/02/09 01:28:34;;;;;;;;;;;;;;;15.71;15.66;100419.66;5056662;28;19921;-82
2023/02/09 01:31:00;;;;;;;;;;;;;;;15.99;14.75;100407.19;5071904;28;20423;-83
2023/02/09 01:33:26;;;;;;;;;;;;;;;16.03;14.52;100399.06;5074492;28;19982;-83
2023/02/09 01:36:02;;;;;;;;;;;;;;;15.43;14.83;100405.19;5058148;28;19924;-83
2023/02/09 01:38:28;;;;;;;;;;;;;;;15.41;15.06;100399.16;5056155;28;20288;-83
2023/02/09 01:40:54;;;;;;;;;;;;;;;15.75;14.80;100381.88;5056125;28;20402;-83
2023/02/09 01:43:20;;;;;;;;;;;;;;;16.10;14.53;100388.31;5056369;28;19923;-84
2023/02/09 01:45:53;;;;;;;;;;;;;;;16.30;14.63;100390.41;5056515;28;19921;-83
2023/02/09 01:48:22;;;;;;;;;;;;;;;16.39;14.02;100382.91;5055907;28;19925;-83
2023/02/09 01:50:50;;;;;;;;;;;;;;;16.14;14.45;100381.78;5056994;28;19999;-83
2023/02/09 01:53:17;;;;;;;;;;;;;;;16.32;14.46;100382.59;5076120;28;19916;-84
2023/02/09 01:55:49;;;;;;;;;;;;;;;16.18;14.29;100382.75;5076186;28;19917;-84
2023/02/09 01:58:16;;;;;;;;;;;;;;;16.06;14.43;100381.75;5067391;28;20264;-83
2023/02/09 02:00:42;;;;;;;;;;;;;;;15.81;14.29;100384.19;5076072;28;19929;-84
2023/02/09 02:03:11;;;;;;;;;;;;;;;15.37;14.56;100391.81;5076245;28;19920;-83
2023/02/09 02:05:39;;;;;;;;;;;;;;;15.18;15.17;100389.31;5075656;28;19920;-84
2023/02/09 02:08:08;;;;;;;;;;;;;;;15.58;15.01;100398.44;5062400;28;20032;-83
2023/02/09 02:10:34;;;;;;;;;;;;;;;15.99;14.36;100398.03;5055754;28;19963;-83
2023/02/09 02:13:00;;;;;;;;;;;;;;;16.03;14.46;100391.56;5056028;28;19917;-84
2023/02/09 02:15:29;;;;;;;;;;;;;;;15.94;14.42;100398.22;5055575;28;20380;-84
2023/02/09 02:18:04;;;;;;;;;;;;;;;16.05;14.43;100391.22;5055827;28;19924;-83
2023/02/09 02:20:49;;;;;;;;;;;;;;;16.25;14.22;100396.13;5055437;28;19956;-83
2023/02/09 02:23:15;;;;;;;;;;;;;;;16.35;13.90;100387.50;5055807;28;19921;-83
2023/02/09 02:25:41;;;;;;;;;;;;;;;16.17;13.84;100388.63;5063813;28;19923;-83
2023/02/09 02:28:25;;;;;;;;;;;;;;;16.04;14.43;100382.09;5075545;28;19916;-84
2023/02/09 02:30:54;;;;;;;;;;;;;;;16.22;13.92;100380.16;5075048;28;19978;-84
2023/02/09 02:33:43;;;;;;;;;;;;;;;15.65;14.37;100377.47;5056992;28;19924;-84
2023/02/09 02:36:15;;;;;;;;;;;;;;;15.36;14.48;100377.16;5035980;28;19916;-83
2023/02/09 02:38:48;;;;;;;;;;;;;;;15.54;14.77;100378.09;5055478;28;19917;-83
2023/02/09 02:41:14;;;;;;;;;;;;;;;15.52;14.65;100381.16;5055209;28;19917;-84
2023/02/09 02:43:59;;;;;;;;;;;;;;;15.26;15.07;100380.25;5055993;28;19916;-83
2023/02/09 02:46:43;;;;;;;;;;;;;;;15.22;15.38;100380.03;5055194;28;19925;-83
2023/02/09 02:49:09;;;;;;;;;;;;;;;15.34;15.24;100376.66;5055084;28;19978;-83
2023/02/09 02:51:38;;;;;;;;;;;;;;;15.04;15.81;100371.97;5054892;28;20384;-83
2023/02/09 02:54:07;;;;;;;;;;;;;;;15.40;15.73;100372.66;5055145;28;20273;-83
2023/02/09 02:56:37;;;;;;;;;;;;;;;15.72;15.44;100374.22;5055139;28;20400;-83
2023/02/09 02:59:06;;;;;;;;;;;;;;;15.90;14.77;100373.94;5055451;28;19931;-83
2023/02/09 03:01:37;;;;;;;;;;;;;;;15.72;15.08;100371.44;5055092;28;20281;-83
2023/02/09 03:04:05;;;;;;;;;;;;;;;15.64;15.39;100375.81;5054599;28;19920;-82
2023/02/09 03:06:32;;;;;;;;;;;;;;;16.03;15.32;100372.16;5066976;28;19923;-83
2023/02/09 03:08:58;;;;;;;;;;;;;;;16.25;14.74;100366.44;5074888;28;19917;-82
2023/02/09 03:11:29;;;;;;;;;;;;;;;16.10;14.81;100363.38;5074595;28;19923;-83
2023/02/09 03:14:05;;;;;;;;;;;;;;;15.60;15.21;100362.94;5074546;28;19923;-83
2023/02/09 03:16:35;;;;;;;;;;;;;;;15.60;15.46;100363.78;5072979;28;19916;-83
2023/02/09 03:19:04;;;;;;;;;;;;;;;15.89;15.11;100354.88;5073314;28;19916;-83
2023/02/09 03:21:33;;;;;;;;;;;;;;;16.19;15.01;100353.09;5054584;28;19917;-83
2023/02/09 03:24:17;;;;;;;;;;;;;;;16.35;14.39;100352.28;5072922;28;19916;-83
2023/02/09 03:26:47;;;;;;;;;;;;;;;16.25;14.29;100343.47;5074421;28;20020;-83
2023/02/09 03:29:14;;;;;;;;;;;;;;;16.17;14.33;100349.84;5074167;28;19925;-83
2023/02/09 03:31:40;;;;;;;;;;;;;;;16.37;14.25;100344.44;5066328;28;19924;-83
2023/02/09 03:34:08;;;;;;;;;;;;;;;16.42;13.87;100349.81;5054695;28;19916;-83
2023/02/09 03:36:35;;;;;;;;;;;;;;;16.31;14.29;100350.47;5054080;28;19921;-83
2023/02/09 03:39:01;;;;;;;;;;;;;;;16.29;14.09;100347.22;5054004;28;19923;-83
2023/02/09 03:41:27;;;;;;;;;;;;;;;16.23;14.30;100349.34;5054180;28;20373;-83
2023/02/09 03:46:37;;;;;;;;;;;;;;;16.28;14.23;100351.94;5054023;28;19923;-83
2023/02/09 03:49:03;;;;;;;;;;;;;;;16.51;14.63;100352.59;5053821;28;19917;-83
2023/02/09 03:51:29;;;;;;;;;;;;;;;16.66;14.09;100348.50;5068743;28;20448;-83
2023/02/09 03:53:55;;;;;;;;;;;;;;;16.41;13.94;100345.41;5074123;28;19939;-82
2023/02/09 03:56:23;;;;;;;;;;;;;;;15.98;14.26;100335.47;5073181;28;20356;-83
2023/02/09 03:58:49;;;;;;;;;;;;;;;15.77;14.92;100346.38;5056953;28;19924;-83
2023/02/09 04:01:16;;;;;;;;;;;;;;;15.42;14.54;100344.63;5053869;28;20008;-83
2023/02/09 04:03:42;;;;;;;;;;;;;;;15.49;14.92;100328.41;5053532;28;19917;-82
2023/02/09 04:06:10;;;;;;;;;;;;;;;15.60;14.60;100332.50;5053663;28;19917;-83
2023/02/09 04:08:36;;;;;;;;;;;;;;;15.61;14.04;100321.06;5054345;28;19920;-83
2023/02/09 04:11:02;;;;;;;;;;;;;;;15.44;14.32;100321.06;5053538;28;19928;-82
2023/02/09 04:13:28;;;;;;;;;;;;;;;15.28;14.59;100324.56;5053416;28;19928;-83
2023/02/09 04:15:55;;;;;;;;;;;;;;;15.04;14.90;100324.97;5053571;28;19917;-83
2023/02/09 04:18:21;;;;;;;;;;;;;;;14.42;15.56;100327.69;5068979;28;20277;-83
2023/02/09 04:20:47;;;;;;;;;;;;;;;14.38;15.88;100339.69;5053480;28;19917;-83
2023/02/09 04:23:14;;;;;;;;;;;;;;;14.80;16.03;100330.84;5053858;28;19959;-82
2023/02/09 04:25:40;;;;;;;;;;;;;;;14.76;15.66;100335.41;5070150;28;19928;-83
2023/02/09 04:28:06;;;;;;;;;;;;;;;15.30;16.07;100334.19;5073340;28;20023;-83
2023/02/09 04:30:32;;;;;;;;;;;;;;;15.22;15.34;100329.41;5073089;28;19971;-82
2023/02/09 04:32:58;;;;;;;;;;;;;;;14.98;15.85;100324.28;5054650;28;19917;-82
2023/02/09 04:35:24;;;;;;;;;;;;;;;14.88;16.37;100324.56;5052124;28;20376;-82
2023/02/09 04:37:50;;;;;;;;;;;;;;;14.96;16.14;100321.00;5053316;28;19921;-82
2023/02/09 04:40:16;;;;;;;;;;;;;;;15.33;16.02;100313.34;5053428;28;19942;-82
2023/02/09 04:42:46;;;;;;;;;;;;;;;15.41;15.81;100312.53;5053038;28;19917;-82
2023/02/09 04:45:12;;;;;;;;;;;;;;;15.58;15.75;100307.09;5053299;28;20381;-82
2023/02/09 04:47:38;;;;;;;;;;;;;;;15.30;15.98;100303.75;5059732;28;19927;-82
2023/02/09 04:50:04;;;;;;;;;;;;;;;15.21;16.21;100306.50;5053204;28;19917;-82
2023/02/09 04:52:30;;;;;;;;;;;;;;;15.37;15.94;100298.53;5058524;28;19921;-82
2023/02/09 04:54:56;;;;;;;;;;;;;;;15.34;16.37;100304.72;5067955;28;20440;-82
2023/02/09 05:00:07;;;;;;;;;;;;;;;15.90;15.51;100303.84;5073016;28;19931;-83
2023/02/09 05:02:33;;;;;;;;;;;;;;;15.51;15.99;100304.78;5071607;28;19959;-82
2023/02/09 05:04:59;;;;;;;;;;;;;;;15.73;15.93;100310.19;5053031;28;19917;-83
2023/02/09 05:07:25;;;;;;;;;;;;;;;15.88;15.33;100304.19;5053072;28;19917;-82
2023/02/09 05:09:52;;;;;;;;;;;;;;;16.10;15.43;100308.75;5053118;28;20372;-82
2023/02/09 05:12:18;;;;;;;;;;;;;;;16.24;15.42;100308.59;5071096;28;19916;-82
2023/02/09 05:14:44;;;;;;;;;;;;;;;16.26;14.83;100307.13;5072236;28;19917;-82
2023/02/09 05:17:10;;;;;;;;;;;;;;;16.31;15.11;100309.69;5053034;28;19912;-82
2023/02/09 05:19:36;;;;;;;;;;;;;;;16.33;14.90;100310.22;5052987;28;19917;-82
2023/02/09 05:22:02;;;;;;;;;;;;;;;16.43;15.06;100306.25;5052853;28;19917;-82
2023/02/09 05:24:28;;;;;;;;;;;;;;;16.66;14.76;100295.81;5053137;28;19923;-83
2023/02/09 05:26:54;;;;;;;;;;;;;;;16.81;14.64;100298.84;5052917;28;19939;-82
2023/02/09 05:29:20;;;;;;;;;;;;;;;16.76;14.12;100303.75;5052481;28;20376;-82
2023/02/09 05:31:46;;;;;;;;;;;;;;;16.61;14.09;100290.44;5069179;28;19924;-82
2023/02/09 05:34:12;;;;;;;;;;;;;;;16.67;14.09;100286.34;5052872;28;19913;-82
2023/02/09 05:36:38;;;;;;;;;;;;;;;16.33;14.05;100289.97;5052864;28;19917;-82
2023/02/09 05:39:04;;;;;;;;;;;;;;;16.05;14.42;100288.72;5052604;28;19917;-82
2023/02/09 05:44:14;;;;;;;;;;;;;;;14.86;15.45;100298.38;5056296;28;20272;-83
2023/02/09 05:46:40;;;;;;;;;;;;;;;14.62;15.73;100301.50;5056213;28;19917;-83
2023/02/09 05:49:06;;;;;;;;;;;;;;;15.14;15.60;100292.31;5057104;28;19924;-83
2023/02/09 05:51:32;;;;;;;;;;;;;;;15.48;15.22;100288.81;5056122;28;19921;-83
2023/02/09 05:53:58;;;;;;;;;;;;;;;15.59;15.26;100289.34;5056195;28;20362;-82
2023/02/09 05:56:25;;;;;;;;;;;;;;;15.62;15.55;100294.22;5063654;28;19960;-83
2023/02/09 05:58:51;;;;;;;;;;;;;;;15.77;15.05;100289.03;5055947;28;20327;-82
2023/02/09 06:01:17;;;;;;;;;;;;;;;16.01;15.39;100290.50;5057902;28;20295;-82
2023/02/09 06:03:43;;;;;;;;;;;;;;;16.44;15.02;100294.03;5076513;28;20007;-83
2023/02/09 06:06:09;;;;;;;;;;;;;;;16.67;14.91;100292.69;5075202;28;19917;-83
2023/02/09 06:08:34;;;;;;;;;;;;;;;16.79;14.44;100295.59;5075963;28;20321;-83
2023/02/09 06:11:02;;;;;;;;;;;;;;;16.89;14.59;100289.72;5075963;28;19938;-82
2023/02/09 06:13:28;;;;;;;;;;;;;;;16.45;14.79;100298.44;5075269;28;19916;-83
2023/02/09 06:15:54;;;;;;;;;;;;;;;16.62;14.76;100298.41;5075769;28;19916;-83
2023/02/09 06:18:20;;;;;;;;;;;;;;;16.45;14.83;100295.69;5075832;28;19916;-83
2023/02/09 06:20:46;;;;;;;;;;;;;;;16.46;14.74;100288.97;5075574;28;19923;-83
2023/02/09 06:23:12;;;;;;;;;;;;;;;16.41;15.06;100292.72;5071239;28;19928;-82
2023/02/09 06:25:39;;;;;;;;;;;;;;;16.20;15.01;100290.97;5055594;28;19917;-83
2023/02/09 06:28:05;;;;;;;;;;;;;;;16.33;15.41;100292.75;5056634;28;20276;-83
2023/02/09 06:30:31;;;;;;;;;;;;;;;16.56;15.32;100297.81;5061208;28;20300;-82
2023/02/09 06:32:59;;;;;;;;;;;;;;;16.94;14.96;100292.28;5073612;28;21276;-83
2023/02/09 06:35:25;;;;;;;;;;;;;;;17.29;14.62;100292.94;5071782;28;19916;-83
2023/02/09 06:37:54;;;;;;;;;;;;;;;17.49;14.30;100286.59;5055399;28;19963;-82
2023/02/09 06:40:20;;;;;;;;;;;;;;;17.52;14.29;100276.81;5056261;28;19917;-82
2023/02/09 06:42:46;;;;;;;;;;;;;;;17.73;14.56;100284.03;5054928;28;20008;-82
2023/02/09 06:45:14;;;;;;;;;;;;;;;17.87;14.50;100290.13;5055047;28;19925;-82
2023/02/09 06:47:40;;;;;;;;;;;;;;;17.61;14.52;100288.69;5069824;28;19920;-82
2023/02/09 06:50:07;;;;;;;;;;;;;;;17.16;15.24;100294.78;5073660;28;19924;-82
2023/02/09 06:52:33;;;;;;;;;;;;;;;16.52;15.75;100296.03;5074977;28;19920;-82
2023/02/09 06:54:59;;;;;;;;;;;;;;;16.68;15.82;100296.28;5073782;28;20291;-82
2023/02/09 06:57:25;;;;;;;;;;;;;;;16.60;15.72;100303.50;5055485;28;20380;-82
2023/02/09 06:59:51;;;;;;;;;;;;;;;16.24;15.94;100303.03;5054848;28;19921;-82
2023/02/09 07:02:17;;;;;;;;;;;;;;;16.40;16.15;100309.72;5054973;28;19921;-82
2023/02/09 07:04:43;;;;;;;;;;;;;;;16.63;15.97;100302.00;5054768;28;19917;-82
2023/02/09 07:07:09;;;;;;;;;;;;;;;16.51;15.99;100302.69;5054820;28;19917;-82
2023/02/09 07:09:35;;;;;;;;;;;;;;;16.08;16.59;100290.84;5054761;28;19917;-82
2023/02/09 07:12:01;;;;;;;;;;;;;;;16.00;16.87;100289.69;5054671;28;19913;-82
2023/02/09 07:14:27;;;;;;;;;;;;;;;16.16;16.76;100290.81;5060770;28;19917;-82
2023/02/09 07:16:53;;;;;;;;;;;;;;;16.65;16.62;100297.78;5074706;28;19970;-82
2023/02/09 07:19:19;;;;;;;;;;;;;;;17.15;16.42;100290.38;5074219;28;20288;-82
2023/02/09 07:21:45;;;;;;;;;;;;;;;17.16;16.38;100288.44;5074505;28;19962;-82
2023/02/09 07:24:11;;;;;;;;;;;;;;;17.07;16.71;100284.88;5074452;28;19923;-82
2023/02/09 07:26:37;;;;;;;;;;;;;;;17.32;16.48;100285.91;5075852;28;19943;-82
2023/02/09 07:29:03;;;;;;;;;;;;;;;16.78;16.81;100293.16;5072066;28;19964;-82
2023/02/09 07:31:29;;;;;;;;;;;;;;;16.43;17.72;100286.84;5067971;28;19925;-82
2023/02/09 07:33:55;;;;;;;;;;;;;;;16.98;17.25;100289.66;5054316;28;19921;-82
2023/02/09 07:36:21;;;;;;;;;;;;;;;14.82;18.97;100289.88;5054478;28;20007;-82
2023/02/09 07:38:48;;;;;;;;;;;;;;;16.69;17.94;100284.84;5053961;28;19967;-82
2023/02/09 07:41:15;;;;;;;;;;;;;;;14.16;19.94;100293.53;5054446;28;19924;-82
2023/02/09 07:43:41;;;;;;;;;;;;;;;15.68;18.86;100293.72;5054361;28;20015;-82
2023/02/09 07:46:08;;;;;;;;;;;;;;;15.69;18.50;100287.06;5053840;28;19917;-82
2023/02/09 07:48:35;;;;;;;;;;;;;;;16.72;17.55;100292.53;5069242;28;19920;-82
2023/02/09 07:51:01;;;;;;;;;;;;;;;16.83;17.74;100293.78;5073998;28;19923;-82
2023/02/09 07:53:28;;;;;;;;;;;;;;;16.67;17.70;100287.16;5074091;28;19924;-82
2023/02/09 07:55:54;;;;;;;;;;;;;;;14.30;19.49;100283.28;5073001;28;19917;-82
2023/02/09 07:58:20;;;;;;;;;;;;;;;15.07;19.21;100282.84;5073965;28;19927;-82
2023/02/09 08:00:47;;;;;;;;;;;;;;;17.03;18.11;100295.03;5054186;28;19932;-83
2023/02/09 08:03:14;;;;;;;;;;;;;;;17.71;17.10;100286.31;5053169;28;19921;-82
2023/02/09 08:05:44;;;;;;;;;;;;;;;18.08;17.05;100286.53;5054163;28;19970;-83
2023/02/09 08:08:10;;;;;;;;;;;;;;;18.20;17.35;100279.06;5054121;28;19967;-82
2023/02/09 08:10:36;;;;;;;;;;;;;;;18.33;16.36;100272.38;5053682;28;19960;-82
2023/02/09 08:13:02;;;;;;;;;;;;;;;18.05;16.90;100270.53;5053551;28;19917;-83
2023/02/09 08:15:35;;;;;;;;;;;;;;;18.22;16.93;100262.03;5053623;28;20289;-82
2023/02/09 08:18:04;;;;;;;;;;;;;;;18.84;16.76;100261.84;5053583;28;20019;-82
2023/02/09 08:20:31;;;;;;;;;;;;;;;18.52;16.72;100258.81;5053375;28;19924;-83
2023/02/09 08:23:00;;;;;;;;;;;;;;;18.82;17.24;100266.97;5063780;28;20449;-82
2023/02/09 08:25:26;;;;;;;;;;;;;;;19.44;16.39;100270.25;5073584;28;19923;-83
2023/02/09 08:27:52;;;;;;;;;;;;;;;19.92;16.45;100259.00;5073385;28;19917;-82
2023/02/09 08:30:18;;;;;;;;;;;;;;;20.25;16.49;100263.56;5060164;28;19921;-82
2023/02/09 08:32:44;;;;;;;;;;;;;;;20.61;15.98;100264.16;5053415;28;19921;-83
2023/02/09 08:35:11;;;;;;;;;;;;;;;20.32;15.70;100260.97;5053485;28;19934;-83
2023/02/09 08:37:37;;;;;;;;;;;;;;;20.66;15.89;100260.28;5053261;28;20376;-83
2023/02/09 08:40:03;;;;;;;;;;;;;;;20.27;15.83;100264.00;5054112;28;19925;-83
2023/02/09 08:42:29;;;;;;;;;;;;;;;20.61;15.91;100261.38;5051921;28;19921;-83
2023/02/09 08:44:55;;;;;;;;;;;;;;;20.61;15.44;100260.56;5051883;28;19917;-83
2023/02/09 08:47:21;;;;;;;;;;;;;;;20.00;16.08;100268.38;5053035;28;19928;-83
2023/02/09 08:49:49;;;;;;;;;;;;;;;19.89;16.20;100265.28;5053245;28;19923;-83
2023/02/09 08:52:16;;;;;;;;;;;;;;;20.21;15.85;100262.63;5053473;28;19917;-83
2023/02/09 08:54:42;;;;;;;;;;;;;;;20.13;16.23;100263.56;5053274;28;19944;-83
2023/02/09 08:57:08;;;;;;;;;;;;;;;20.56;16.01;100253.25;5053417;28;19964;-83
2023/02/09 08:59:34;;;;;;;;;;;;;;;20.90;15.80;100257.34;5053439;28;19928;-83
2023/02/09 09:02:00;;;;;;;;;;;;;;;21.04;15.81;100260.53;5058922;28;20308;-83
2023/02/09 09:04:28;;;;;;;;;;;;;;;21.18;15.40;100258.09;5067176;28;19916;-82
2023/02/09 09:06:54;;;;;;;;;;;;;;;21.04;15.17;100252.16;5073070;28;19963;-82
2023/02/09 09:09:20;;;;;;;;;;;;;;;21.05;15.50;100250.97;5073427;28;19916;-82
2023/02/09 09:11:46;;;;;;;;;;;;;;;20.38;15.76;100246.41;5073217;28;19917;-83
2023/02/09 09:14:12;;;;;;;;;;;;;;;20.37;16.68;100247.59;5060550;28;20312;-83
2023/02/09 09:16:38;;;;;;;;;;;;;;;18.97;17.64;100249.59;5056492;28;19917;-83
2023/02/09 09:19:04;;;;;;;;;;;;;;;19.17;17.51;100257.81;5056687;28;19924;-83
2023/02/09 09:21:30;;;;;;;;;;;;;;;19.51;17.09;100256.53;5056765;28;20474;-83
2023/02/09 09:23:56;;;;;;;;;;;;;;;18.17;18.04;100257.50;5056756;28;19962;-83
2023/02/09 09:26:22;;;;;;;;;;;;;;;18.36;17.98;100255.03;5056998;28;19920;-83
2023/02/09 09:28:49;;;;;;;;;;;;;;;18.36;17.77;100260.59;5056046;28;19921;-83
2023/02/09 09:31:16;;;;;;;;;;;;;;;20.04;17.50;100260.13;5057272;28;20011;-83
2023/02/09 09:33:43;;;;;;;;;;;;;;;19.71;17.23;100261.16;5062915;28;20427;-83
2023/02/09 09:36:10;;;;;;;;;;;;;;;19.56;16.85;100270.22;5073490;28;19927;-83
2023/02/09 09:38:37;;;;;;;;;;;;;;;19.33;16.35;100261.53;5056810;28;19971;-83
2023/02/09 09:41:04;;;;;;;;;;;;;;;19.36;17.51;100270.38;5056514;28;20277;-83
2023/02/09 09:43:37;;;;;;;;;;;;;;;19.91;17.30;100267.69;5056446;28;19963;-83
2023/02/09 09:46:04;;;;;;;;;;;;;;;20.40;16.57;100265.56;5056229;28;19921;-83
2023/02/09 09:48:40;;;;;;;;;;;;;;;19.43;17.23;100267.81;5057459;28;19921;-83
2023/02/09 09:51:10;;;;;;;;;;;;;;;19.93;16.63;100268.97;5056338;28;20277;-84
2023/02/09 09:53:36;;;;;;;;;;;;;;;19.86;16.87;100263.19;5056188;28;19959;-84
2023/02/09 09:56:05;;;;;;;;;;;;;;;20.70;17.01;100261.19;5059472;28;19917;-84
2023/02/09 09:58:31;;;;;;;;;;;;;;;19.42;17.47;100266.22;5076003;28;19948;-84
2023/02/09 10:00:58;;;;;;;;;;;;;;;18.61;18.26;100264.25;5076315;28;19920;-84
2023/02/09 10:03:24;;;;;;;;;;;;;;;20.52;17.98;100260.72;5076041;28;20296;-84
2023/02/09 10:05:51;;;;;;;;;;;;;;;19.12;18.07;100262.81;5075355;28;19958;-84
2023/02/09 10:08:17;;;;;;;;;;;;;;;19.46;17.55;100256.78;5074755;28;19966;-84
2023/02/09 10:10:43;;;;;;;;;;;;;;;19.16;18.28;100258.97;5075734;28;20284;-84
2023/02/09 10:13:22;;;;;;;;;;;;;;;19.82;17.31;100255.88;5076047;28;19921;-84
2023/02/09 10:15:49;;;;;;;;;;;;;;;19.90;17.96;100247.41;5076038;28;19916;-84
2023/02/09 10:18:15;;;;;;;;;;;;;;;18.22;18.81;100251.72;5075700;28;19963;-84
2023/02/09 10:20:49;;;;;;;;;;;;;;;19.54;18.22;100247.47;5075175;28;19923;-84
2023/02/09 10:23:17;;;;;;;;;;;;;;;17.94;19.26;100250.69;5055982;28;19917;-84
2023/02/09 10:25:52;;;;;;;;;;;;;;;16.16;21.04;100257.56;5054981;28;20472;-84
2023/02/09 10:28:23;;;;;;;;;;;;;;;19.74;19.09;100232.56;5054876;28;20368;-84
2023/02/09 10:30:50;;;;;;;;;;;;;;;19.93;17.98;100234.69;5074072;28;20299;-84
2023/02/09 10:33:17;;;;;;;;;;;;;;;18.38;18.91;100224.91;5075653;28;19962;-84
2023/02/09 10:35:45;;;;;;;;;;;;;;;18.59;19.47;100225.66;5075507;28;19920;-84
2023/02/09 10:38:16;;;;;;;;;;;;;;;19.57;18.10;100226.47;5071771;28;19916;-84
2023/02/09 10:40:42;;;;;;;;;;;;;;;20.39;17.75;100222.09;5055598;28;19917;-84
2023/02/09 10:43:18;;;;;;;;;;;;;;;21.16;16.63;100226.09;5055083;28;20373;-84
2023/02/09 10:45:45;;;;;;;;;;;;;;;21.38;15.64;100216.25;5055438;28;19920;-83
2023/02/09 10:48:11;;;;;;;;;;;;;;;21.42;16.12;100211.53;5054685;28;19928;-83
2023/02/09 10:50:48;;;;;;;;;;;;;;;22.02;15.13;100210.88;5055265;28;19913;-83
2023/02/09 10:53:22;;;;;;;;;;;;;;;19.51;17.78;100205.59;5055358;28;19923;-83
2023/02/09 10:55:49;;;;;;;;;;;;;;;17.58;19.82;100217.97;5065769;28;19987;-83
2023/02/09 10:58:24;;;;;;;;;;;;;;;20.10;17.45;100202.91;5074794;28;19917;-83
2023/02/09 11:00:56;;;;;;;;;;;;;;;21.28;16.64;100201.63;5074986;28;20291;-83
2023/02/09 11:03:25;;;;;;;;;;;;;;;22.23;16.01;100190.91;5074922;28;20372;-82
2023/02/09 11:06:12;;;;;;;;;;;;;;;22.94;16.36;100185.38;5074845;28;20430;-83
2023/02/09 11:08:47;;;;;;;;;;;;;;;23.21;15.14;100180.59;5074506;28;19924;-82
2023/02/09 11:11:19;;;;;;;;;;;;;;;23.34;15.31;100179.19;5074877;28;19960;-83
2023/02/09 11:13:45;;;;;;;;;;;;;;;23.51;15.16;100175.88;5058068;28;19917;-83
2023/02/09 11:16:24;;;;;;;;;;;;;;;23.45;16.06;100163.38;5054800;28;19920;-82
2023/02/09 11:18:59;;;;;;;;;;;;;;;23.88;15.99;100159.91;5054461;28;19923;-82
2023/02/09 11:21:30;;;;;;;;;;;;;;;22.87;15.55;100164.88;5054530;28;19916;-82
2023/02/09 11:23:56;;;;;;;;;;;;;;;22.48;15.89;100156.59;5054610;28;19917;-83
2023/02/09 11:26:25;;;;;;;;;;;;;;;18.45;19.72;100164.00;5054236;28;19923;-84
2023/02/09 11:29:00;;;;;;;;;;;;;;;18.33;19.44;100157.56;5069728;28;19927;-83
2023/02/09 11:31:45;;;;;;;;;;;;;;;16.75;20.91;100150.41;5054278;28;20368;-83
2023/02/09 11:34:11;;;;;;;;;;;;;;;18.07;20.01;100151.47;5054369;28;19923;-83
2023/02/09 11:36:56;;;;;;;;;;;;;;;19.10;18.83;100146.22;5054106;28;20003;-82
2023/02/09 11:39:40;;;;;;;;;;;;;;;20.89;17.34;100137.63;5054028;28;19921;-83
2023/02/09 11:45:00;;;;;;;;;;;;;;;22.40;16.02;100138.06;5054003;28;19986;-83
2023/02/09 11:47:38;;;;;;;;;;;;;;;22.31;15.58;100131.88;5055431;28;19929;-82
2023/02/09 11:50:07;;;;;;;;;;;;;;;22.21;16.66;100128.91;5056978;28;19952;-85
2023/02/09 11:52:37;;;;;;;;;;;;;;;23.31;16.25;100123.91;5064640;28;19924;-81
2023/02/09 11:55:14;;;;;;;;;;;;;;;23.80;15.73;100123.75;5061610;28;19928;-83
2023/02/09 11:57:45;;;;;;;;;;;;;;;24.18;15.28;100114.97;5053778;28;19928;-83
2023/02/09 12:00:17;;;;;;;;;;;;;;;24.57;15.55;100115.34;5060218;28;19921;-83
2023/02/09 12:02:52;;;;;;;;;;;;;;;24.64;14.69;100112.59;5065657;28;20423;-83
2023/02/09 12:05:19;;;;;;;;;;;;;;;24.38;14.51;100115.56;5060848;28;20027;-84
2023/02/09 12:07:45;;;;;;;;;;;;;;;24.35;14.71;100119.13;5060219;28;19956;-82
2023/02/09 12:10:26;;;;;;;;;;;;;;;24.40;15.74;100115.97;5065562;28;19916;-82
2023/02/09 12:12:57;;;;;;;;;;;;;;;24.90;15.54;100115.19;5073963;28;19951;-82
2023/02/09 12:15:44;;;;;;;;;;;;;;;24.88;14.75;100114.00;5064152;28;19928;-82
2023/02/09 12:18:13;;;;;;;;;;;;;;;25.19;14.61;100094.53;5052075;28;19920;-83
2023/02/09 12:20:39;;;;;;;;;;;;;;;24.62;13.40;100098.13;5055302;28;19966;-83
2023/02/09 12:23:24;;;;;;;;;;;;;;;24.46;14.90;100089.97;5066538;28;19916;-82
2023/02/09 12:25:58;;;;;;;;;;;;;;;24.13;14.66;100078.84;5059008;28;19921;-82
2023/02/09 12:28:30;;;;;;;;;;;;;;;24.21;14.34;100076.91;5053015;28;19917;-83
2023/02/09 12:30:56;;;;;;;;;;;;;;;24.58;14.63;100086.03;5053012;28;19925;-83
2023/02/09 12:33:22;;;;;;;;;;;;;;;24.00;14.42;100078.28;5053077;28;20003;-81
2023/02/09 12:35:59;;;;;;;;;;;;;;;24.30;14.32;100074.56;5053207;28;19921;-82
2023/02/09 12:38:41;;;;;;;;;;;;;;;24.51;14.13;100066.31;5056217;28;19939;-84
2023/02/09 12:41:07;;;;;;;;;;;;;;;24.80;14.09;100059.75;5070377;28;19967;-83
2023/02/09 12:43:34;;;;;;;;;;;;;;;24.77;14.23;100045.66;5057128;28;19924;-84
2023/02/09 12:46:19;;;;;;;;;;;;;;;24.57;14.41;100045.94;5053332;28;20335;-83
2023/02/09 12:48:53;;;;;;;;;;;;;;;24.19;15.05;100052.03;5052894;28;19974;-83
2023/02/09 12:51:38;;;;;;;;;;;;;;;24.67;15.53;100042.38;5070958;28;19928;-83
2023/02/09 12:54:22;;;;;;;;;;;;;;;24.50;14.84;100036.63;5057262;28;19924;-85